Time;durP1;ratioP1;P1;durP2;ratioP2;P2;SDS_P1;SDS_P2;PMS_P1;PMS_P2;Temp;Humidity;BMP_temperature;BMP_pressure;BME280_temperature;BME280_humidity;BME280_pressure;Samples;Min_cycle;Max_cycle;Signal;HPM_P1;HPM_P2
2024/03/12 00:02:07;;;;;;;2.73;1.93;;;10.70;99.90;;;;;;5081857;28;20517;-47
2024/03/12 00:04:35;;;;;;;3.07;1.93;;;10.60;99.90;;;;;;5072530;28;20441;-47
2024/03/12 00:07:03;;;;;;;5.20;3.83;;;10.70;99.90;;;;;;5075896;28;20974;-47
2024/03/12 00:09:33;;;;;;;4.40;2.90;;;10.70;99.90;;;;;;5075874;28;20992;-47
2024/03/12 00:12:01;;;;;;;3.97;3.17;;;10.70;99.90;;;;;;5069904;28;20538;-47
2024/03/12 00:14:33;;;;;;;6.10;4.20;;;10.60;99.90;;;;;;5075075;28;20480;-47
2024/03/12 00:17:03;;;;;;;4.07;2.30;;;10.70;99.90;;;;;;5082337;28;20954;-47
2024/03/12 00:19:33;;;;;;;6.43;4.20;;;10.70;99.90;;;;;;5071490;28;20497;-47
2024/03/12 00:22:01;;;;;;;5.10;3.93;;;10.70;99.90;;;;;;5084408;28;20859;-47
2024/03/12 00:24:29;;;;;;;6.20;3.80;;;10.70;99.90;;;;;;5080879;28;20427;-46
2024/03/12 00:26:58;;;;;;;3.70;2.70;;;10.70;99.90;;;;;;5070491;28;20434;-47
2024/03/12 00:29:26;;;;;;;5.37;3.77;;;10.70;99.90;;;;;;5084001;28;20461;-47
2024/03/12 00:31:55;;;;;;;5.10;3.33;;;10.60;99.90;;;;;;5076845;28;21006;-46
2024/03/12 00:34:25;;;;;;;3.50;2.43;;;10.60;99.90;;;;;;5073824;28;20473;-46
2024/03/12 00:36:53;;;;;;;5.60;4.17;;;10.60;99.90;;;;;;5076215;28;20433;-47
2024/03/12 00:39:21;;;;;;;5.00;3.20;;;10.60;99.90;;;;;;5101983;28;20500;-47
2024/03/12 00:41:50;;;;;;;3.53;3.00;;;10.60;99.90;;;;;;5081342;28;20519;-47
2024/03/12 00:44:19;;;;;;;3.90;2.60;;;10.60;99.90;;;;;;5082722;28;20437;-46
2024/03/12 00:46:48;;;;;;;5.77;3.93;;;10.60;99.90;;;;;;5080068;28;20490;-46
2024/03/12 00:49:16;;;;;;;4.47;3.60;;;10.60;99.90;;;;;;5079822;28;20445;-46
2024/03/12 00:51:48;;;;;;;4.00;3.40;;;10.60;99.90;;;;;;5085636;28;20498;-47
2024/03/12 00:54:17;;;;;;;6.67;4.17;;;10.60;99.90;;;;;;5086346;28;20462;-46
2024/03/12 00:56:46;;;;;;;4.33;3.20;;;10.60;99.90;;;;;;5082437;28;20956;-47
2024/03/12 00:59:18;;;;;;;4.67;3.50;;;10.60;99.90;;;;;;5086462;28;20500;-47
2024/03/12 01:01:48;;;;;;;5.50;3.43;;;10.60;99.90;;;;;;5088462;28;20495;-47
2024/03/12 01:04:16;;;;;;;7.80;4.10;;;10.60;99.90;;;;;;5077143;28;20529;-47
2024/03/12 01:06:46;;;;;;;6.20;4.20;;;10.60;99.90;;;;;;5086083;28;20457;-46
2024/03/12 01:09:17;;;;;;;4.30;2.90;;;10.60;99.90;;;;;;5088243;28;20445;-46
2024/03/12 01:11:46;;;;;;;4.90;3.40;;;10.60;99.90;;;;;;5081243;28;20973;-46
2024/03/12 01:14:14;;;;;;;5.43;3.57;;;10.60;99.90;;;;;;5084944;28;20549;-47
2024/03/12 01:16:44;;;;;;;5.40;3.50;;;10.60;99.90;;;;;;5085009;28;20453;-47
2024/03/12 01:19:12;;;;;;;4.67;3.50;;;10.60;99.90;;;;;;5087893;28;20510;-46
2024/03/12 01:21:40;;;;;;;3.93;2.70;;;10.60;99.90;;;;;;5078285;28;20447;-47
2024/03/12 01:24:11;;;;;;;5.33;4.00;;;10.60;99.90;;;;;;5075995;28;20442;-47
2024/03/12 01:26:39;;;;;;;5.30;4.13;;;10.60;99.90;;;;;;5080991;28;20445;-46
2024/03/12 01:29:07;;;;;;;4.67;3.60;;;10.60;99.90;;;;;;5080778;28;20445;-47
2024/03/12 01:31:35;;;;;;;4.20;3.20;;;10.60;99.90;;;;;;5085893;28;20441;-47
2024/03/12 01:34:06;;;;;;;5.50;3.70;;;10.60;99.90;;;;;;5079501;28;20514;-47
2024/03/12 01:36:35;;;;;;;4.93;3.70;;;10.60;99.90;;;;;;5084750;28;20505;-45
2024/03/12 01:39:07;;;;;;;4.10;3.03;;;10.60;99.90;;;;;;5085703;28;20842;-46
2024/03/12 01:41:41;;;;;;;5.10;3.27;;;10.60;99.90;;;;;;5094930;28;20453;-49
2024/03/12 01:44:09;;;;;;;5.33;3.13;;;10.60;99.90;;;;;;5075638;28;20948;-47
2024/03/12 01:46:38;;;;;;;3.97;3.00;;;10.60;99.90;;;;;;5074624;28;20939;-46
2024/03/12 01:49:08;;;;;;;3.97;2.60;;;10.60;99.90;;;;;;5077231;28;20507;-48
2024/03/12 01:51:38;;;;;;;5.33;3.60;;;10.60;99.90;;;;;;5084390;28;20436;-47
2024/03/12 01:54:06;;;;;;;4.93;3.37;;;10.60;99.90;;;;;;5080872;28;20985;-47
2024/03/12 01:56:35;;;;;;;5.33;4.10;;;10.60;99.90;;;;;;5080468;28;20486;-46
2024/03/12 01:59:04;;;;;;;4.33;3.10;;;10.60;99.90;;;;;;5079183;28;20504;-49
2024/03/12 02:01:32;;;;;;;3.90;2.90;;;10.50;99.90;;;;;;5078400;28;20455;-47
2024/03/12 02:04:02;;;;;;;3.97;3.00;;;10.60;99.90;;;;;;5082909;28;20529;-50
2024/03/12 02:06:30;;;;;;;4.50;3.30;;;10.50;99.90;;;;;;5073847;28;20830;-49
2024/03/12 02:09:03;;;;;;;6.43;4.90;;;10.50;99.90;;;;;;5080265;28;20540;-48
2024/03/12 02:11:31;;;;;;;5.37;4.00;;;10.50;99.90;;;;;;5079866;28;20461;-47
2024/03/12 02:13:59;;;;;;;3.87;3.13;;;10.50;99.90;;;;;;5080438;28;20459;-49
2024/03/12 02:16:28;;;;;;;3.37;2.80;;;10.50;99.90;;;;;;5086600;28;20503;-49
2024/03/12 02:18:56;;;;;;;4.17;3.20;;;10.50;99.90;;;;;;5079830;28;20442;-46
2024/03/12 02:21:24;;;;;;;4.80;3.30;;;10.50;99.90;;;;;;5070232;28;20457;-48
2024/03/12 02:23:54;;;;;;;5.00;3.20;;;10.50;99.90;;;;;;5079629;28;20449;-49
2024/03/12 02:26:22;;;;;;;7.23;3.93;;;10.50;99.90;;;;;;5082770;28;20442;-48
2024/03/12 02:28:50;;;;;;;5.30;3.40;;;10.50;99.90;;;;;;5079455;28;20465;-47
2024/03/12 02:31:19;;;;;;;4.97;3.30;;;10.50;99.90;;;;;;5086797;28;20771;-46
2024/03/12 02:33:48;;;;;;;4.53;3.37;;;10.50;99.90;;;;;;5082258;28;20427;-49
2024/03/12 02:36:17;;;;;;;8.47;4.77;;;10.50;99.90;;;;;;5085650;28;20426;-48
2024/03/12 02:38:45;;;;;;;5.70;4.00;;;10.50;99.90;;;;;;5075565;28;20480;-50
2024/03/12 02:41:15;;;;;;;4.60;3.33;;;10.50;99.90;;;;;;5081518;28;20487;-48
2024/03/12 02:43:43;;;;;;;5.63;4.00;;;10.50;99.90;;;;;;5070063;28;20953;-50
2024/03/12 02:46:11;;;;;;;7.37;5.00;;;10.50;99.90;;;;;;5085839;28;20417;-49
2024/03/12 02:48:42;;;;;;;8.00;4.90;;;10.50;99.90;;;;;;5079863;28;20481;-52
2024/03/12 02:51:10;;;;;;;5.20;4.07;;;10.50;99.90;;;;;;5083036;28;20452;-49
2024/03/12 02:53:38;;;;;;;4.27;3.20;;;10.50;99.90;;;;;;5083032;28;20413;-47
2024/03/12 02:56:06;;;;;;;7.90;4.77;;;10.50;99.90;;;;;;5072313;28;20475;-48
2024/03/12 02:58:36;;;;;;;7.87;4.00;;;10.50;99.90;;;;;;5085344;28;20442;-47
2024/03/12 03:01:04;;;;;;;7.40;4.90;;;10.50;99.90;;;;;;5068721;28;20427;-45
2024/03/12 03:03:34;;;;;;;6.70;4.50;;;10.50;99.90;;;;;;5079664;28;20474;-48
2024/03/12 03:06:02;;;;;;;4.50;3.43;;;10.50;99.90;;;;;;5078682;28;20455;-47
2024/03/12 03:08:31;;;;;;;6.60;5.23;;;10.50;99.90;;;;;;5083503;28;21031;-49
2024/03/12 03:10:59;;;;;;;5.77;3.73;;;10.50;99.90;;;;;;5078829;28;21546;-47
2024/03/12 03:13:27;;;;;;;6.07;3.87;;;10.50;99.90;;;;;;5083263;28;20428;-50
2024/03/12 03:15:57;;;;;;;6.50;4.50;;;10.50;99.90;;;;;;5085947;28;20461;-48
2024/03/12 03:18:27;;;;;;;6.40;4.93;;;10.50;99.90;;;;;;5086915;28;20496;-47
2024/03/12 03:20:55;;;;;;;6.10;4.60;;;10.50;99.90;;;;;;5071591;28;20513;-48
2024/03/12 03:23:23;;;;;;;5.47;4.43;;;10.50;99.90;;;;;;5083126;28;20447;-47
2024/03/12 03:25:51;;;;;;;4.53;4.07;;;10.50;99.90;;;;;;5076927;28;20440;-48
2024/03/12 03:28:19;;;;;;;5.70;3.57;;;10.50;99.90;;;;;;5086841;28;20514;-49
2024/03/12 03:30:48;;;;;;;5.47;3.60;;;10.50;99.90;;;;;;5084180;28;20521;-49
2024/03/12 03:33:18;;;;;;;6.07;4.67;;;10.40;99.90;;;;;;5085573;28;20814;-48
2024/03/12 03:35:46;;;;;;;6.83;4.30;;;10.50;99.90;;;;;;5079814;28;20490;-48
2024/03/12 03:38:14;;;;;;;5.10;4.10;;;10.50;99.90;;;;;;5085403;28;20435;-48
2024/03/12 03:40:42;;;;;;;4.57;3.93;;;10.50;99.90;;;;;;5074928;28;20443;-49
2024/03/12 03:43:10;;;;;;;5.80;4.73;;;10.40;99.90;;;;;;5085294;28;20928;-49
2024/03/12 03:45:38;;;;;;;6.00;4.63;;;10.40;99.90;;;;;;5076724;28;20438;-50
2024/03/12 03:48:07;;;;;;;4.17;3.20;;;10.40;99.90;;;;;;5066286;28;20549;-48
2024/03/12 03:50:36;;;;;;;7.00;4.63;;;10.50;99.90;;;;;;5070921;28;20604;-47
2024/03/12 03:53:08;;;;;;;4.47;3.10;;;10.40;99.90;;;;;;5068466;28;20448;-48
2024/03/12 03:55:38;;;;;;;6.27;4.13;;;10.40;99.90;;;;;;5095273;28;20476;-47
2024/03/12 03:58:07;;;;;;;4.30;3.20;;;10.40;99.90;;;;;;5073953;28;20458;-48
2024/03/12 04:00:35;;;;;;;8.37;4.40;;;10.40;99.90;;;;;;5075532;28;20426;-48
2024/03/12 04:03:06;;;;;;;5.47;3.83;;;10.40;99.90;;;;;;5079163;28;20454;-47
2024/03/12 04:05:36;;;;;;;5.47;3.60;;;10.40;99.90;;;;;;5084801;28;20523;-49
2024/03/12 04:08:06;;;;;;;6.80;4.90;;;10.40;99.90;;;;;;5082161;28;20870;-48
2024/03/12 04:10:34;;;;;;;5.43;4.00;;;10.40;99.90;;;;;;5083733;28;20536;-47
2024/03/12 04:13:04;;;;;;;5.13;4.03;;;10.40;99.90;;;;;;5069353;28;20425;-49
2024/03/12 04:15:33;;;;;;;6.30;4.00;;;10.40;99.90;;;;;;5089750;28;20462;-47
2024/03/12 04:18:02;;;;;;;7.10;5.60;;;10.40;99.90;;;;;;5090229;28;20452;-46
2024/03/12 04:20:30;;;;;;;5.73;4.17;;;10.40;99.90;;;;;;5074942;28;20527;-48
2024/03/12 04:23:01;;;;;;;6.10;4.90;;;10.40;99.90;;;;;;5075278;28;20457;-47
2024/03/12 04:25:29;;;;;;;6.00;4.47;;;10.40;99.90;;;;;;5075179;28;20480;-49
2024/03/12 04:27:57;;;;;;;5.27;4.20;;;10.40;99.90;;;;;;5089376;28;20446;-48
2024/03/12 04:30:25;;;;;;;6.00;4.20;;;10.40;99.90;;;;;;5090275;28;20472;-52
2024/03/12 04:32:53;;;;;;;6.07;3.60;;;10.40;99.90;;;;;;5084729;28;20436;-48
2024/03/12 04:35:21;;;;;;;5.10;4.07;;;10.40;99.90;;;;;;5088111;28;20560;-48
2024/03/12 04:37:50;;;;;;;6.30;4.67;;;10.40;99.90;;;;;;5085584;28;20466;-49
2024/03/12 04:40:22;;;;;;;7.50;5.03;;;10.40;99.90;;;;;;5076443;28;20427;-49
2024/03/12 04:42:53;;;;;;;6.83;5.33;;;10.40;99.90;;;;;;5086715;28;20476;-48
2024/03/12 04:45:21;;;;;;;5.50;3.70;;;10.40;99.90;;;;;;5085725;28;20517;-47
2024/03/12 04:47:49;;;;;;;7.00;4.67;;;10.40;99.90;;;;;;5084793;28;20450;-46
2024/03/12 04:50:22;;;;;;;5.30;3.80;;;10.40;99.90;;;;;;5090455;28;20795;-47
2024/03/12 04:52:51;;;;;;;7.83;5.10;;;10.40;99.90;;;;;;5080675;28;20516;-47
2024/03/12 04:55:20;;;;;;;7.50;4.40;;;10.40;99.90;;;;;;5086701;28;20417;-47
2024/03/12 04:57:48;;;;;;;7.57;4.87;;;10.40;99.90;;;;;;5087439;28;20439;-48
2024/03/12 05:00:18;;;;;;;9.13;6.07;;;10.40;99.90;;;;;;5083979;28;20523;-47
2024/03/12 05:02:48;;;;;;;6.20;4.30;;;10.40;99.90;;;;;;5081788;28;20529;-48
2024/03/12 05:05:18;;;;;;;8.43;6.17;;;10.30;99.90;;;;;;5084319;28;20534;-47
2024/03/12 05:07:46;;;;;;;6.90;5.20;;;10.40;99.90;;;;;;5077632;28;20536;-47
2024/03/12 05:10:15;;;;;;;8.67;4.10;;;10.40;99.90;;;;;;5087312;28;20417;-47
2024/03/12 05:12:45;;;;;;;6.43;4.50;;;10.40;99.90;;;;;;5085013;28;20444;-48
2024/03/12 05:15:14;;;;;;;5.70;4.30;;;10.40;99.90;;;;;;5090429;28;20434;-48
2024/03/12 05:17:42;;;;;;;7.53;5.47;;;10.40;99.90;;;;;;5088205;28;20479;-48
2024/03/12 05:20:14;;;;;;;10.30;6.03;;;10.40;99.90;;;;;;5086294;28;20918;-48
2024/03/12 05:22:42;;;;;;;16.37;7.67;;;10.40;99.90;;;;;;5086839;28;20432;-48
2024/03/12 05:25:19;;;;;;;9.60;5.40;;;10.40;99.90;;;;;;5076391;28;20432;-48
2024/03/12 05:27:48;;;;;;;7.37;5.07;;;10.30;99.90;;;;;;5087129;28;20453;-48
2024/03/12 05:30:20;;;;;;;7.90;5.23;;;10.30;99.90;;;;;;5080624;28;20468;-48
2024/03/12 05:32:48;;;;;;;6.43;4.63;;;10.30;99.90;;;;;;5082569;28;20441;-48
2024/03/12 05:35:21;;;;;;;7.53;4.47;;;10.30;99.90;;;;;;5084486;28;20512;-48
2024/03/12 05:38:03;;;;;;;5.87;4.70;;;10.40;99.90;;;;;;5087393;28;20552;-48
2024/03/12 05:40:46;;;;;;;8.33;6.13;;;10.30;99.90;;;;;;5078647;28;20454;-48
2024/03/12 05:48:49;;;;;;;8.00;6.50;;;10.30;99.90;;;;;;5079470;28;20469;-47
2024/03/12 05:51:19;;;;;;;7.43;4.33;;;10.30;99.90;;;;;;5079066;28;20438;-48
2024/03/12 05:53:47;;;;;;;5.90;4.07;;;10.30;99.90;;;;;;5077154;28;21013;-47
2024/03/12 05:56:15;;;;;;;6.93;5.37;;;10.30;99.90;;;;;;5073584;28;20474;-46
2024/03/12 05:58:47;;;;;;;7.30;4.97;;;10.30;99.90;;;;;;5076419;28;20443;-47
2024/03/12 06:01:16;;;;;;;7.20;5.17;;;10.30;99.90;;;;;;5089572;28;20449;-45
2024/03/12 06:03:45;;;;;;;6.37;4.40;;;10.30;99.90;;;;;;5085496;28;20419;-47
2024/03/12 06:06:13;;;;;;;6.50;4.50;;;10.30;99.90;;;;;;5083487;28;20531;-47
2024/03/12 06:08:41;;;;;;;5.20;4.10;;;10.30;99.90;;;;;;5080181;28;20453;-47
2024/03/12 06:11:09;;;;;;;6.40;4.80;;;10.30;99.90;;;;;;5079733;28;20441;-45
2024/03/12 06:13:38;;;;;;;8.10;6.33;;;10.30;99.90;;;;;;5075892;28;20445;-47
2024/03/12 06:16:08;;;;;;;8.30;5.07;;;10.30;99.90;;;;;;5072966;28;20428;-47
2024/03/12 06:18:36;;;;;;;7.00;4.70;;;10.30;99.90;;;;;;5071070;28;20991;-47
2024/03/12 06:21:07;;;;;;;7.90;5.67;;;10.30;99.90;;;;;;5078153;28;20488;-48
2024/03/12 06:23:35;;;;;;;8.70;6.20;;;10.30;99.90;;;;;;5088109;28;20455;-50
2024/03/12 06:26:06;;;;;;;7.07;5.27;;;10.30;99.90;;;;;;5074424;28;20913;-47
2024/03/12 06:28:35;;;;;;;7.23;5.67;;;10.30;99.90;;;;;;5082078;28;20500;-47
2024/03/12 06:31:04;;;;;;;5.27;3.93;;;10.30;99.90;;;;;;5088547;28;20453;-48
2024/03/12 06:33:34;;;;;;;5.80;4.37;;;10.30;99.90;;;;;;5081435;28;20445;-50
2024/03/12 06:36:03;;;;;;;6.50;4.67;;;10.30;99.90;;;;;;5079753;28;20448;-48
2024/03/12 06:38:32;;;;;;;7.60;5.40;;;10.30;99.90;;;;;;5083277;28;20449;-47
2024/03/12 06:41:00;;;;;;;7.23;4.90;;;10.30;99.90;;;;;;5079938;28;20512;-46
2024/03/12 06:43:28;;;;;;;7.90;5.80;;;10.30;99.90;;;;;;5076734;28;20426;-52
2024/03/12 06:45:56;;;;;;;6.80;4.40;;;10.30;99.90;;;;;;5072431;28;20522;-46
2024/03/12 06:48:24;;;;;;;7.20;5.00;;;10.20;99.90;;;;;;5087592;28;20984;-51
2024/03/12 06:50:54;;;;;;;7.10;4.90;;;10.30;99.90;;;;;;5079198;28;20492;-50
2024/03/12 06:53:25;;;;;;;7.60;4.80;;;10.30;99.90;;;;;;5077727;28;20450;-46
2024/03/12 06:55:53;;;;;;;6.90;5.47;;;10.30;99.90;;;;;;5076449;28;20459;-45
2024/03/12 06:58:21;;;;;;;8.10;5.83;;;10.30;99.90;;;;;;5088984;28;20838;-46
2024/03/12 07:00:50;;;;;;;5.97;4.70;;;10.20;99.90;;;;;;5086939;28;20959;-46
2024/03/12 07:03:21;;;;;;;8.10;5.10;;;10.30;99.90;;;;;;5080125;28;21040;-47
2024/03/12 07:05:50;;;;;;;9.13;5.50;;;10.30;99.90;;;;;;5076039;28;20443;-47
2024/03/12 07:08:25;;;;;;;11.00;6.87;;;10.30;99.90;;;;;;5086662;28;20457;-46
2024/03/12 07:10:53;;;;;;;7.03;4.43;;;10.30;99.90;;;;;;5080428;28;20443;-46
2024/03/12 07:13:23;;;;;;;6.83;4.83;;;10.30;99.90;;;;;;5087111;28;20476;-47
2024/03/12 07:15:51;;;;;;;7.70;4.70;;;10.20;99.90;;;;;;5078470;28;20831;-48
2024/03/12 07:18:21;;;;;;;6.80;4.97;;;10.30;99.90;;;;;;5083607;28;21027;-46
2024/03/12 07:20:52;;;;;;;7.10;5.00;;;10.20;99.90;;;;;;5077383;28;20820;-48
2024/03/12 07:23:21;;;;;;;8.07;5.27;;;10.20;99.90;;;;;;5075249;28;20425;-47
2024/03/12 07:25:49;;;;;;;7.77;5.17;;;10.20;99.90;;;;;;5073633;28;20666;-48
2024/03/12 07:28:18;;;;;;;5.60;4.43;;;10.20;99.90;;;;;;5088114;28;20963;-49
2024/03/12 07:30:52;;;;;;;8.20;5.30;;;10.20;99.90;;;;;;5086430;28;20627;-46
2024/03/12 07:33:20;;;;;;;5.87;4.37;;;10.20;99.90;;;;;;5080802;28;20473;-48
2024/03/12 07:35:48;;;;;;;6.67;4.57;;;10.20;99.90;;;;;;5072126;28;20535;-46
2024/03/12 07:38:17;;;;;;;7.43;5.27;;;10.20;99.90;;;;;;5086142;28;20469;-47
2024/03/12 07:40:47;;;;;;;7.07;4.50;;;10.20;99.90;;;;;;5078418;28;20443;-48
2024/03/12 07:43:15;;;;;;;7.27;4.70;;;10.20;99.90;;;;;;5086237;28;20430;-48
2024/03/12 07:45:46;;;;;;;8.80;5.50;;;10.20;99.90;;;;;;5071731;28;20458;-45
2024/03/12 07:48:15;;;;;;;7.00;4.83;;;10.20;99.90;;;;;;5068310;28;20989;-46
2024/03/12 07:50:44;;;;;;;6.17;4.60;;;10.20;99.90;;;;;;5072830;28;20553;-50
2024/03/12 07:53:12;;;;;;;6.43;4.53;;;10.20;99.90;;;;;;5078075;28;20975;-47
2024/03/12 07:55:43;;;;;;;8.30;5.27;;;10.20;99.90;;;;;;5072662;28;20550;-47
2024/03/12 07:58:13;;;;;;;5.90;4.70;;;10.20;99.90;;;;;;5080284;28;20905;-45
2024/03/12 08:00:41;;;;;;;6.53;5.00;;;10.20;99.90;;;;;;5081441;28;20933;-48
2024/03/12 08:03:11;;;;;;;6.70;4.73;;;10.20;99.90;;;;;;5073223;28;20472;-49
2024/03/12 08:05:39;;;;;;;6.87;4.60;;;10.20;99.90;;;;;;5070117;28;20424;-46
2024/03/12 08:08:08;;;;;;;7.67;5.57;;;10.20;99.90;;;;;;5067867;28;20524;-47
2024/03/12 08:10:38;;;;;;;6.47;4.90;;;10.20;99.90;;;;;;5075356;28;20467;-47
2024/03/12 08:13:06;;;;;;;5.83;4.60;;;10.20;99.90;;;;;;5070766;28;20424;-45
2024/03/12 08:15:35;;;;;;;6.43;4.90;;;10.20;99.90;;;;;;5079404;28;20422;-48
2024/03/12 08:18:05;;;;;;;5.10;4.60;;;10.20;99.90;;;;;;5077557;28;20480;-47
2024/03/12 08:20:47;;;;;;;6.80;4.93;;;10.20;99.90;;;;;;5080347;28;20420;-49
2024/03/12 08:23:19;;;;;;;5.80;4.40;;;10.20;99.90;;;;;;5075482;28;20516;-46
2024/03/12 08:25:47;;;;;;;8.10;5.20;;;10.20;99.90;;;;;;5074811;28;20444;-47
2024/03/12 08:28:27;;;;;;;6.03;4.60;;;10.20;99.90;;;;;;5073916;28;20471;-47
2024/03/12 08:30:56;;;;;;;7.30;4.90;;;10.20;99.90;;;;;;5076222;28;20492;-50
2024/03/12 08:33:35;;;;;;;6.43;5.10;;;10.20;99.90;;;;;;5068823;28;20481;-47
2024/03/12 08:36:03;;;;;;;5.63;4.00;;;10.20;99.90;;;;;;5075460;28;20427;-49
2024/03/12 08:38:31;;;;;;;6.27;4.87;;;10.20;99.90;;;;;;5073845;28;20494;-49
2024/03/12 08:41:00;;;;;;;8.40;5.73;;;10.20;99.90;;;;;;5067114;28;20453;-48
2024/03/12 08:43:28;;;;;;;5.80;4.97;;;10.20;99.90;;;;;;5068751;28;20430;-45
2024/03/12 08:45:58;;;;;;;7.73;5.40;;;10.20;99.90;;;;;;5071828;28;20422;-48
2024/03/12 08:48:26;;;;;;;6.53;4.93;;;10.20;99.90;;;;;;5072309;28;20575;-48
2024/03/12 08:50:56;;;;;;;4.90;4.27;;;10.20;99.90;;;;;;5066881;28;20639;-48
2024/03/12 08:53:24;;;;;;;6.07;4.77;;;10.20;99.90;;;;;;5087567;28;20437;-47
2024/03/12 08:55:52;;;;;;;5.43;4.13;;;10.20;99.90;;;;;;5071321;28;20959;-46
2024/03/12 08:58:20;;;;;;;7.93;5.30;;;10.20;99.90;;;;;;5068790;28;20831;-50
2024/03/12 09:00:48;;;;;;;8.90;5.17;;;10.20;99.90;;;;;;5075762;28;20885;-49
2024/03/12 09:03:18;;;;;;;5.40;4.57;;;10.20;99.90;;;;;;5079002;28;20439;-46
2024/03/12 09:05:46;;;;;;;6.60;5.20;;;10.20;99.90;;;;;;5075220;28;20811;-46
2024/03/12 09:08:14;;;;;;;6.03;4.60;;;10.20;99.90;;;;;;5069805;28;20466;-49
2024/03/12 09:10:42;;;;;;;5.60;4.00;;;10.20;99.90;;;;;;5068069;28;20443;-46
2024/03/12 09:13:11;;;;;;;5.07;4.57;;;10.20;99.90;;;;;;5073980;28;20462;-48
2024/03/12 09:15:41;;;;;;;5.70;4.47;;;10.20;99.90;;;;;;5072543;28;20423;-51
2024/03/12 09:18:09;;;;;;;6.87;4.50;;;10.20;99.90;;;;;;5071746;28;20462;-48
2024/03/12 09:20:39;;;;;;;5.20;4.10;;;10.20;99.90;;;;;;5068566;28;20466;-50
2024/03/12 09:23:07;;;;;;;6.40;4.87;;;10.30;99.90;;;;;;5070595;28;20954;-49
2024/03/12 09:25:36;;;;;;;19.10;9.17;;;;;;;;;;5069110;28;20992;-50
2024/03/12 09:28:05;;;;;;;14.73;9.07;;;10.60;99.90;;;;;;5074686;28;20500;-49
2024/03/12 09:30:34;;;;;;;16.80;12.13;;;10.60;99.90;;;;;;5067285;28;20958;-50
2024/03/12 09:33:04;;;;;;;16.93;12.03;;;10.60;99.90;;;;;;5072297;28;20428;-48
2024/03/12 09:35:32;;;;;;;15.47;10.57;;;10.60;99.90;;;;;;5072486;28;20427;-49
2024/03/12 09:38:02;;;;;;;14.57;12.13;;;10.50;99.90;;;;;;5078194;28;20553;-48
2024/03/12 09:40:30;;;;;;;13.97;10.20;;;10.40;99.90;;;;;;5064410;28;20449;-49
2024/03/12 09:43:00;;;;;;;14.60;10.67;;;10.40;99.90;;;;;;5085744;28;20485;-49
2024/03/12 09:45:29;;;;;;;13.17;8.60;;;10.40;99.90;;;;;;5074420;28;20423;-51
2024/03/12 09:47:57;;;;;;;13.90;9.60;;;10.40;99.90;;;;;;5074563;28;20447;-49
2024/03/12 09:50:29;;;;;;;13.27;10.53;;;10.30;99.90;;;;;;5071325;28;20951;-48
2024/03/12 09:52:57;;;;;;;10.67;8.73;;;10.30;99.90;;;;;;5073781;28;20432;-48
2024/03/12 09:55:27;;;;;;;12.87;8.90;;;10.30;99.90;;;;;;5071126;28;20795;-48
2024/03/12 09:57:56;;;;;;;14.53;11.40;;;10.30;99.90;;;;;;5071059;28;21039;-49
2024/03/12 10:00:27;;;;;;;16.10;10.30;;;10.30;99.90;;;;;;5071426;28;20429;-50
2024/03/12 10:02:59;;;;;;;14.00;10.43;;;10.30;99.90;;;;;;5071104;28;20438;-50
2024/03/12 10:05:28;;;;;;;14.90;10.90;;;10.30;99.90;;;;;;5072388;28;20430;-49
2024/03/12 10:08:08;;;;;;;14.43;10.93;;;10.30;99.90;;;;;;5078734;28;20869;-49
2024/03/12 10:10:42;;;;;;;13.60;9.20;;;10.30;99.90;;;;;;5060320;28;20447;-49
2024/03/12 10:13:15;;;;;;;14.10;10.10;;;10.30;99.90;;;;;;5071657;28;20433;-48
2024/03/12 10:15:52;;;;;;;16.20;11.30;;;10.30;99.90;;;;;;5075326;28;20993;-48
2024/03/12 10:18:22;;;;;;;12.93;10.20;;;10.30;99.90;;;;;;5088125;28;20548;-48
2024/03/12 10:20:54;;;;;;;11.90;10.03;;;10.20;99.90;;;;;;5072112;28;20789;-48
2024/03/12 10:23:23;;;;;;;12.33;9.73;;;10.20;99.90;;;;;;5083543;28;20422;-48
2024/03/12 10:25:53;;;;;;;14.80;9.63;;;10.30;99.90;;;;;;5070170;28;20438;-51
2024/03/12 10:28:26;;;;;;;13.03;9.60;;;10.20;99.90;;;;;;5081308;28;20942;-48
2024/03/12 10:31:08;;;;;;;10.07;8.43;;;10.20;99.90;;;;;;5068940;28;20538;-46
2024/03/12 10:33:37;;;;;;;13.00;9.27;;;10.20;99.90;;;;;;5080744;28;20441;-49
2024/03/12 10:36:10;;;;;;;13.77;9.63;;;10.20;99.90;;;;;;5077585;28;20538;-49
2024/03/12 10:38:39;;;;;;;12.43;8.87;;;10.20;99.90;;;;;;5076419;28;20471;-48
2024/03/12 10:41:19;;;;;;;14.40;9.00;;;10.20;99.90;;;;;;5068031;28;20536;-49
2024/03/12 10:43:52;;;;;;;14.30;10.70;;;10.20;99.90;;;;;;5074429;28;20441;-49
2024/03/12 10:46:21;;;;;;;10.37;8.97;;;10.20;99.90;;;;;;5084086;28;20451;-48
2024/03/12 10:48:51;;;;;;;11.23;8.30;;;10.20;99.90;;;;;;5078377;28;20528;-48
2024/03/12 10:51:20;;;;;;;10.43;9.03;;;10.20;99.90;;;;;;5083498;28;20945;-49
2024/03/12 10:53:50;;;;;;;10.73;9.20;;;10.20;99.90;;;;;;5087883;28;20469;-49
2024/03/12 10:56:20;;;;;;;10.30;8.17;;;10.20;99.90;;;;;;5077076;28;20448;-49
2024/03/12 10:58:48;;;;;;;13.20;10.23;;;10.20;99.90;;;;;;5088130;28;20462;-48
2024/03/12 11:01:18;;;;;;;10.20;8.80;;;10.20;99.90;;;;;;5083944;28;20432;-48
2024/03/12 11:03:48;;;;;;;11.67;9.53;;;10.20;99.90;;;;;;5082157;28;21004;-49
2024/03/12 11:06:16;;;;;;;14.27;10.10;;;10.20;99.90;;;;;;5071975;28;20423;-48
2024/03/12 11:08:45;;;;;;;13.07;8.57;;;10.20;99.90;;;;;;5074290;28;20967;-49
2024/03/12 11:11:14;;;;;;;12.70;9.27;;;10.20;99.90;;;;;;5081411;28;20495;-49
2024/03/12 11:13:44;;;;;;;12.40;8.90;;;10.20;99.90;;;;;;5082455;28;20440;-50
2024/03/12 11:16:17;;;;;;;10.33;8.30;;;10.20;99.90;;;;;;5075226;28;20431;-49
2024/03/12 11:18:47;;;;;;;10.53;7.87;;;10.20;99.90;;;;;;5080366;28;20593;-50
2024/03/12 11:21:19;;;;;;;11.97;8.40;;;10.20;99.90;;;;;;5075614;28;21302;-49
2024/03/12 11:23:47;;;;;;;9.87;8.23;;;10.20;99.90;;;;;;5078471;28;20435;-48
2024/03/12 11:26:16;;;;;;;10.33;7.77;;;10.20;99.90;;;;;;5072889;28;20452;-49
2024/03/12 11:28:50;;;;;;;9.30;8.23;;;10.20;99.90;;;;;;5081309;28;20454;-49
2024/03/12 11:31:19;;;;;;;12.40;8.20;;;10.20;99.90;;;;;;5081686;28;20465;-49
2024/03/12 11:33:52;;;;;;;10.07;7.80;;;10.20;99.90;;;;;;5078463;28;20490;-49
2024/03/12 11:36:28;;;;;;;10.83;7.23;;;10.20;99.90;;;;;;5080857;28;20434;-48
2024/03/12 11:38:59;;;;;;;11.20;8.20;;;10.20;99.90;;;;;;5080845;28;20453;-49
2024/03/12 11:42:11;;;;;;;11.00;8.43;;;10.20;99.90;;;;;;5082668;28;20490;-49
2024/03/12 11:44:53;;;;;;;10.67;8.10;;;10.30;99.90;;;;;;5076363;28;20433;-47
2024/03/12 11:47:34;;;;;;;9.77;7.50;;;10.30;99.90;;;;;;5064752;28;20947;-47
2024/03/12 11:50:07;;;;;;;10.73;7.17;;;10.30;99.90;;;;;;5079476;28;20442;-50
2024/03/12 11:52:37;;;;;;;11.13;8.23;;;10.30;99.90;;;;;;5088745;28;20449;-48
2024/03/12 11:55:05;;;;;;;11.50;8.80;;;10.30;99.90;;;;;;5079292;28;20479;-48
2024/03/12 11:57:34;;;;;;;11.10;7.93;;;10.30;99.90;;;;;;5084429;28;20454;-49
2024/03/12 12:00:09;;;;;;;10.20;8.47;;;10.30;99.90;;;;;;5086548;28;20822;-49
2024/03/12 12:02:42;;;;;;;11.57;7.13;;;10.20;99.90;;;;;;5079763;28;20433;-48
2024/03/12 12:05:12;;;;;;;9.13;7.40;;;10.30;99.90;;;;;;5066995;28;20449;-48
2024/03/12 12:07:41;;;;;;;10.53;7.67;;;10.30;99.90;;;;;;5075820;28;20907;-51
2024/03/12 12:10:10;;;;;;;8.83;7.80;;;10.30;99.90;;;;;;5079656;28;20414;-49
2024/03/12 12:12:38;;;;;;;9.73;7.70;;;10.20;99.90;;;;;;5074488;28;20427;-49
2024/03/12 12:15:11;;;;;;;9.60;7.53;;;10.30;99.90;;;;;;5069704;28;20418;-49
2024/03/12 12:17:40;;;;;;;9.57;7.40;;;10.30;99.90;;;;;;5082396;28;20477;-48
2024/03/12 12:20:14;;;;;;;11.60;7.80;;;10.30;99.90;;;;;;5067595;28;20477;-46
2024/03/12 12:22:49;;;;;;;9.40;7.07;;;10.20;99.90;;;;;;5079443;28;20429;-49
2024/03/12 12:25:19;;;;;;;11.90;7.13;;;10.20;99.90;;;;;;5091344;28;20430;-48
2024/03/12 12:27:47;;;;;;;9.83;7.17;;;10.20;99.90;;;;;;5078931;28;20470;-48
2024/03/12 12:30:19;;;;;;;9.80;7.87;;;10.20;99.90;;;;;;5084084;28;20826;-48
2024/03/12 12:32:50;;;;;;;11.27;7.60;;;10.20;99.90;;;;;;5080894;28;20432;-47
2024/03/12 12:35:20;;;;;;;10.23;7.10;;;10.30;99.90;;;;;;5083281;28;20460;-49
2024/03/12 12:37:50;;;;;;;8.87;7.23;;;10.20;99.90;;;;;;5082398;28;20441;-48
2024/03/12 12:40:20;;;;;;;9.70;7.47;;;10.20;99.90;;;;;;5082311;28;20453;-48
2024/03/12 12:42:51;;;;;;;9.07;6.97;;;10.20;99.90;;;;;;5080515;28;20434;-48
2024/03/12 12:45:20;;;;;;;12.90;7.90;;;10.20;99.90;;;;;;5080415;28;20450;-47
2024/03/12 12:47:49;;;;;;;8.90;7.27;;;10.20;99.90;;;;;;5069396;28;20458;-49
2024/03/12 12:50:31;;;;;;;7.87;6.50;;;10.20;99.90;;;;;;5083628;28;20435;-49
2024/03/12 12:53:00;;;;;;;11.13;7.50;;;10.20;99.90;;;;;;5091158;28;20470;-47
2024/03/12 12:55:29;;;;;;;8.57;7.67;;;10.20;99.90;;;;;;5069806;28;20439;-49
2024/03/12 12:58:01;;;;;;;10.10;8.37;;;10.20;99.90;;;;;;5073155;28;20455;-47
2024/03/12 13:00:35;;;;;;;10.30;8.00;;;10.20;99.90;;;;;;5071515;28;20461;-47
2024/03/12 13:03:18;;;;;;;11.83;7.30;;;10.20;99.90;;;;;;5079553;28;20480;-47